Time;durP1;ratioP1;P1;durP2;ratioP2;P2;SDS_P1;SDS_P2;PMS_P1;PMS_P2;Temp;Humidity;BMP_temperature;BMP_pressure;BME280_temperature;BME280_humidity;BME280_pressure;Samples;Min_cycle;Max_cycle;Signal;HPM_P1;HPM_P2
2023/08/21 00:00:59;;;;;;;1.33;0.55;;;23.90;69.90;;;;;;5070293;28;20447;-63
2023/08/21 00:03:25;;;;;;;2.95;0.70;;;24.00;69.90;;;;;;5072357;28;20491;-63
2023/08/21 00:05:50;;;;;;;1.85;0.73;;;23.90;69.90;;;;;;5070229;28;20045;-63
2023/08/21 00:08:16;;;;;;;2.15;0.80;;;23.90;69.90;;;;;;5072146;28;20119;-63
2023/08/21 00:10:41;;;;;;;1.75;0.70;;;23.90;69.90;;;;;;5072201;28;20043;-63
2023/08/21 00:13:07;;;;;;;1.67;0.60;;;23.90;69.90;;;;;;5104004;28;20079;-63
2023/08/21 00:15:33;;;;;;;1.50;0.43;;;23.90;69.90;;;;;;5070796;28;20550;-63
2023/08/21 00:18:00;;;;;;;2.08;0.70;;;23.90;69.90;;;;;;5072201;28;20115;-63
2023/08/21 00:20:26;;;;;;;1.95;0.50;;;23.90;69.90;;;;;;5071736;28;20083;-64
2023/08/21 00:22:51;;;;;;;2.65;0.80;;;23.90;70.00;;;;;;5070482;28;20064;-63
2023/08/21 00:25:17;;;;;;;1.67;0.60;;;23.90;69.90;;;;;;5074608;28;20119;-63
2023/08/21 00:27:42;;;;;;;1.60;0.75;;;23.90;69.90;;;;;;5074860;28;20128;-63
2023/08/21 00:30:09;;;;;;;1.55;0.70;;;23.90;70.00;;;;;;5075754;28;20114;-63
2023/08/21 00:32:35;;;;;;;3.05;0.70;;;23.90;70.00;;;;;;5075575;28;20109;-64
2023/08/21 00:35:00;;;;;;;1.02;0.60;;;23.90;70.00;;;;;;5074795;28;20094;-63
2023/08/21 00:37:26;;;;;;;1.30;0.60;;;23.90;70.00;;;;;;5074271;28;20492;-63
2023/08/21 00:39:51;;;;;;;1.45;0.60;;;23.80;69.90;;;;;;5075526;28;20156;-63
2023/08/21 00:42:17;;;;;;;1.17;0.70;;;23.90;70.00;;;;;;5073534;28;20037;-63
2023/08/21 00:44:43;;;;;;;2.70;0.77;;;23.80;69.90;;;;;;5075100;28;20132;-63
2023/08/21 00:47:08;;;;;;;2.20;1.00;;;23.80;69.90;;;;;;5075316;28;20471;-63
2023/08/21 00:49:34;;;;;;;1.58;0.65;;;23.80;70.00;;;;;;5074424;28;20135;-63
2023/08/21 00:51:59;;;;;;;2.20;0.90;;;23.80;69.90;;;;;;5075172;28;20040;-63
2023/08/21 00:54:25;;;;;;;1.20;0.60;;;23.80;70.00;;;;;;5075479;28;20045;-63
2023/08/21 00:56:52;;;;;;;2.38;0.82;;;23.80;70.00;;;;;;5073116;28;20484;-64
2023/08/21 00:59:19;;;;;;;1.45;0.68;;;23.80;70.00;;;;;;5074200;28;20052;-63
2023/08/21 01:01:45;;;;;;;1.67;0.70;;;23.80;70.00;;;;;;5074869;28;20044;-63
2023/08/21 01:04:10;;;;;;;2.83;0.68;;;23.80;70.00;;;;;;5074259;28;20045;-63
2023/08/21 01:06:36;;;;;;;1.45;0.70;;;23.80;70.00;;;;;;5074718;28;20484;-64
2023/08/21 01:09:13;;;;;;;2.20;0.70;;;23.80;70.00;;;;;;5073316;28;20110;-63
2023/08/21 01:11:43;;;;;;;1.67;0.70;;;23.80;69.90;;;;;;5073875;28;20492;-63
2023/08/21 01:14:21;;;;;;;2.42;0.60;;;23.80;69.90;;;;;;5073737;28;20052;-63
2023/08/21 01:16:46;;;;;;;1.75;0.65;;;23.80;69.90;;;;;;5073735;28;20416;-63
2023/08/21 01:19:24;;;;;;;2.25;0.80;;;23.70;69.90;;;;;;5073576;28;20050;-63
2023/08/21 01:21:50;;;;;;;1.58;0.80;;;23.80;70.00;;;;;;5056706;28;20436;-63
2023/08/21 01:24:19;;;;;;;2.33;0.80;;;23.70;69.90;;;;;;5072986;28;20548;-63
2023/08/21 01:26:45;;;;;;;2.28;0.90;;;23.70;69.90;;;;;;5074458;28;20048;-63
2023/08/21 01:29:10;;;;;;;2.58;0.80;;;23.70;69.90;;;;;;5074668;28;20040;-63
2023/08/21 01:31:36;;;;;;;2.53;0.90;;;23.70;69.90;;;;;;5072067;28;20127;-63
2023/08/21 01:34:04;;;;;;;2.45;0.88;;;23.70;69.90;;;;;;5073490;28;20083;-64
2023/08/21 01:36:30;;;;;;;1.55;0.70;;;23.70;69.90;;;;;;5074238;28;20098;-63
2023/08/21 01:38:55;;;;;;;1.45;0.70;;;23.70;69.90;;;;;;5055631;28;20041;-63
2023/08/21 01:41:24;;;;;;;1.85;0.77;;;23.70;69.90;;;;;;5056805;28;20051;-64
2023/08/21 01:43:49;;;;;;;2.63;0.85;;;23.70;69.90;;;;;;5074099;28;20082;-64
2023/08/21 01:46:15;;;;;;;1.35;0.60;;;23.70;69.90;;;;;;5073381;28;20048;-64
2023/08/21 01:48:40;;;;;;;1.20;0.60;;;23.70;69.90;;;;;;5074278;28;20041;-63
2023/08/21 01:51:06;;;;;;;1.90;0.88;;;23.70;69.90;;;;;;5074366;28;20127;-64
2023/08/21 01:53:32;;;;;;;1.45;0.65;;;23.70;70.00;;;;;;5073800;28;20404;-64
2023/08/21 01:55:57;;;;;;;2.55;0.60;;;23.70;70.00;;;;;;5074163;28;20089;-64
2023/08/21 01:58:23;;;;;;;2.38;0.90;;;23.70;69.90;;;;;;5073518;28;20472;-64
2023/08/21 02:00:48;;;;;;;2.35;0.80;;;23.70;69.90;;;;;;5073717;28;20132;-64
2023/08/21 02:03:14;;;;;;;2.60;0.80;;;23.70;69.90;;;;;;5072410;28;20052;-64
2023/08/21 02:05:40;;;;;;;1.95;0.70;;;23.70;70.00;;;;;;5070992;28;20498;-64
2023/08/21 02:08:06;;;;;;;2.33;0.90;;;23.60;69.90;;;;;;5072571;28;20094;-63
2023/08/21 02:10:32;;;;;;;2.35;0.70;;;23.70;70.00;;;;;;5073897;28;20045;-63
2023/08/21 02:12:57;;;;;;;1.90;0.75;;;23.70;69.90;;;;;;5073014;28;20086;-64
2023/08/21 02:15:23;;;;;;;2.00;0.70;;;23.60;69.90;;;;;;5073691;28;20052;-63
2023/08/21 02:17:49;;;;;;;2.15;0.60;;;23.60;69.90;;;;;;5073554;28;20132;-64
2023/08/21 02:20:14;;;;;;;2.25;0.88;;;23.60;69.90;;;;;;5071722;28;20068;-63
2023/08/21 02:22:40;;;;;;;2.65;0.70;;;23.60;69.90;;;;;;5073452;28;20102;-63
2023/08/21 02:25:06;;;;;;;2.13;0.82;;;23.60;69.90;;;;;;5073476;28;20037;-63
2023/08/21 02:27:31;;;;;;;2.10;0.70;;;23.60;70.50;;;;;;5071813;28;20123;-63
2023/08/21 02:29:57;;;;;;;1.85;0.80;;;23.60;69.90;;;;;;5072883;28;20491;-63
2023/08/21 02:32:22;;;;;;;2.20;0.88;;;23.60;69.90;;;;;;5073336;28;20127;-63
2023/08/21 02:34:48;;;;;;;1.65;0.80;;;23.60;69.90;;;;;;5070955;28;20061;-63
2023/08/21 02:37:14;;;;;;;2.75;0.80;;;23.60;69.90;;;;;;5073607;28;20088;-63
2023/08/21 02:39:39;;;;;;;2.60;0.88;;;23.60;69.90;;;;;;5072970;28;20051;-63
2023/08/21 02:42:05;;;;;;;1.58;0.80;;;23.60;69.90;;;;;;5072521;28;20111;-63
2023/08/21 02:44:30;;;;;;;2.72;0.73;;;23.60;69.90;;;;;;5072061;28;20052;-63
2023/08/21 02:46:56;;;;;;;1.77;0.77;;;23.60;69.90;;;;;;5072377;28;20157;-63
2023/08/21 02:49:21;;;;;;;1.77;0.70;;;23.60;69.90;;;;;;5072578;28;20045;-63
2023/08/21 02:51:47;;;;;;;1.58;0.70;;;23.60;69.90;;;;;;5072884;28;20037;-63
2023/08/21 02:54:13;;;;;;;1.77;0.90;;;23.60;69.90;;;;;;5072913;28;20502;-63
2023/08/21 02:56:38;;;;;;;1.83;0.60;;;23.50;69.90;;;;;;5071917;28;20036;-63
2023/08/21 02:59:04;;;;;;;2.50;0.73;;;23.60;69.90;;;;;;5072977;28;20181;-63
2023/08/21 03:01:29;;;;;;;2.85;0.88;;;23.60;69.90;;;;;;5072109;28;20032;-63
2023/08/21 03:03:55;;;;;;;2.08;0.80;;;23.60;69.90;;;;;;5071355;28;20130;-63
2023/08/21 03:06:21;;;;;;;1.83;0.85;;;23.50;69.90;;;;;;5073004;28;20162;-63
2023/08/21 03:08:46;;;;;;;1.70;0.80;;;23.50;69.90;;;;;;5072108;28;20047;-63
2023/08/21 03:11:12;;;;;;;2.17;0.70;;;23.50;69.90;;;;;;5072889;28;20044;-64
2023/08/21 03:13:38;;;;;;;3.05;0.77;;;23.50;69.90;;;;;;5072621;28;20123;-63
2023/08/21 03:16:04;;;;;;;2.50;0.90;;;23.50;70.50;;;;;;5072157;28;20041;-63
2023/08/21 03:18:30;;;;;;;2.17;0.70;;;23.50;69.90;;;;;;5071636;28;20127;-63
2023/08/21 03:20:56;;;;;;;0.65;0.63;;;23.50;69.90;;;;;;5071639;28;20068;-63
2023/08/21 03:23:22;;;;;;;1.60;0.60;;;23.50;69.90;;;;;;5072178;28;20098;-63
2023/08/21 03:25:47;;;;;;;1.67;0.70;;;23.50;69.90;;;;;;5072714;28;20043;-63
2023/08/21 03:28:13;;;;;;;1.73;0.55;;;23.50;70.00;;;;;;5072542;28;20044;-63
2023/08/21 03:30:41;;;;;;;2.92;0.70;;;23.50;69.90;;;;;;5071891;28;20037;-63
2023/08/21 03:33:08;;;;;;;1.73;0.80;;;23.50;69.90;;;;;;5072769;28;20036;-63
2023/08/21 03:35:34;;;;;;;1.48;0.70;;;23.50;69.90;;;;;;5072201;28;20139;-63
2023/08/21 03:37:59;;;;;;;1.17;0.65;;;23.50;70.00;;;;;;5070914;28;20140;-63
2023/08/21 03:40:25;;;;;;;1.42;0.70;;;23.50;69.90;;;;;;5072786;28;20045;-63
2023/08/21 03:42:50;;;;;;;1.20;0.52;;;23.50;69.90;;;;;;5072410;28;20047;-64
2023/08/21 03:45:16;;;;;;;1.65;0.70;;;23.50;69.90;;;;;;5071891;28;20391;-63
2023/08/21 03:47:41;;;;;;;1.40;0.70;;;23.50;69.90;;;;;;5071106;28;20049;-64
2023/08/21 03:50:07;;;;;;;1.85;0.60;;;23.50;69.90;;;;;;5072492;28;20515;-63
2023/08/21 03:52:33;;;;;;;1.60;0.80;;;23.50;70.00;;;;;;5071887;28;20044;-63
2023/08/21 03:54:58;;;;;;;2.55;0.70;;;23.40;69.90;;;;;;5071270;28;20044;-64
2023/08/21 03:57:24;;;;;;;1.95;0.80;;;23.50;69.90;;;;;;5072526;28;20036;-63
2023/08/21 03:59:50;;;;;;;0.95;0.60;;;23.40;69.90;;;;;;5073180;28;20139;-63
2023/08/21 04:02:15;;;;;;;1.80;0.70;;;23.40;69.90;;;;;;5074680;28;20032;-63
2023/08/21 04:04:41;;;;;;;2.03;0.80;;;23.40;69.90;;;;;;5075547;28;20037;-63
2023/08/21 04:07:06;;;;;;;1.58;0.60;;;23.40;69.90;;;;;;5073346;28;20040;-63
2023/08/21 04:09:32;;;;;;;1.83;0.73;;;23.40;69.90;;;;;;5074868;28;20051;-64
2023/08/21 04:11:57;;;;;;;2.05;0.80;;;23.40;69.90;;;;;;5075249;28;20484;-63
2023/08/21 04:14:23;;;;;;;1.55;0.60;;;23.40;69.90;;;;;;5076273;28;20056;-63
2023/08/21 04:16:49;;;;;;;2.00;0.70;;;23.40;69.90;;;;;;5075852;28;20434;-64
2023/08/21 04:19:14;;;;;;;2.28;0.90;;;23.40;69.90;;;;;;5075395;28;20036;-63
2023/08/21 04:21:40;;;;;;;2.05;0.60;;;23.40;69.90;;;;;;5075856;28;20377;-64
2023/08/21 04:24:05;;;;;;;1.85;0.80;;;23.40;69.90;;;;;;5075987;28;20040;-63
2023/08/21 04:26:31;;;;;;;1.17;0.60;;;23.40;69.90;;;;;;5073724;28;20123;-63
2023/08/21 04:28:57;;;;;;;1.92;0.80;;;23.40;70.00;;;;;;5075788;28;20040;-63
2023/08/21 04:31:22;;;;;;;1.90;0.68;;;23.30;69.90;;;;;;5075905;28;20041;-63
2023/08/21 04:33:48;;;;;;;1.83;0.80;;;23.30;69.80;;;;;;5074674;28;20090;-63
2023/08/21 04:36:17;;;;;;;1.27;0.52;;;23.30;69.90;;;;;;5075566;28;20052;-63
2023/08/21 04:38:43;;;;;;;1.52;0.60;;;23.40;69.90;;;;;;5074170;28;20049;-63
2023/08/21 04:41:09;;;;;;;1.95;0.82;;;23.30;69.90;;;;;;5075056;28;20033;-63
2023/08/21 04:43:34;;;;;;;1.40;0.80;;;23.30;69.90;;;;;;5074170;28;20055;-63
2023/08/21 04:46:00;;;;;;;1.27;0.60;;;23.30;69.90;;;;;;5075653;28;20464;-63
2023/08/21 04:48:26;;;;;;;2.42;0.88;;;23.30;69.90;;;;;;5074874;28;20087;-63
2023/08/21 04:50:51;;;;;;;1.00;0.70;;;23.30;69.90;;;;;;5073922;28;20040;-63
2023/08/21 04:53:17;;;;;;;2.15;0.77;;;23.30;69.90;;;;;;5075332;28;20113;-63
2023/08/21 04:55:42;;;;;;;3.00;0.70;;;23.30;69.90;;;;;;5074528;28;20124;-63
2023/08/21 04:58:09;;;;;;;1.98;0.82;;;23.30;69.90;;;;;;5075450;28;20032;-63
2023/08/21 05:00:34;;;;;;;2.28;0.60;;;23.30;69.90;;;;;;5073576;28;20056;-63
2023/08/21 05:03:00;;;;;;;1.30;0.70;;;23.30;69.90;;;;;;5074757;28;20033;-63
2023/08/21 05:05:25;;;;;;;1.75;0.60;;;23.30;69.90;;;;;;5075414;28;20153;-63
2023/08/21 05:07:52;;;;;;;1.25;0.60;;;23.30;69.90;;;;;;5074898;28;20052;-63
2023/08/21 05:10:18;;;;;;;2.05;0.80;;;23.30;69.90;;;;;;5074046;28;20056;-63
2023/08/21 05:12:44;;;;;;;2.00;0.80;;;23.30;69.80;;;;;;5073664;28;20044;-63
2023/08/21 05:15:10;;;;;;;1.17;0.65;;;23.30;69.90;;;;;;5074430;28;20075;-63
2023/08/21 05:17:36;;;;;;;1.60;0.70;;;23.30;69.80;;;;;;5074686;28;20128;-63
2023/08/21 05:20:01;;;;;;;1.85;0.65;;;23.30;69.80;;;;;;5074951;28;20037;-64
2023/08/21 05:22:27;;;;;;;1.63;0.80;;;23.30;69.80;;;;;;5074138;28;20090;-63
2023/08/21 05:24:52;;;;;;;1.70;0.63;;;23.40;69.80;;;;;;5074645;28;20480;-63
2023/08/21 05:27:18;;;;;;;0.90;0.50;;;23.40;69.90;;;;;;5075002;28;20102;-63
2023/08/21 05:29:47;;;;;;;1.55;0.60;;;23.40;69.80;;;;;;5073796;28;20503;-63
2023/08/21 05:32:12;;;;;;;1.90;0.68;;;23.40;69.80;;;;;;5074764;28;20043;-63
2023/08/21 05:34:38;;;;;;;2.35;0.70;;;23.40;69.80;;;;;;5072902;28;20036;-64
2023/08/21 05:37:04;;;;;;;2.58;0.70;;;23.40;69.80;;;;;;5073765;28;20040;-63
2023/08/21 05:39:29;;;;;;;1.65;0.55;;;23.40;69.90;;;;;;5074665;28;20123;-63
2023/08/21 05:41:55;;;;;;;1.80;0.57;;;23.40;69.90;;;;;;5074448;28;20040;-63
2023/08/21 05:44:21;;;;;;;1.92;0.60;;;23.30;69.80;;;;;;5073921;28;20044;-63
2023/08/21 05:46:46;;;;;;;1.35;0.70;;;23.40;69.90;;;;;;5074204;28;20033;-63
2023/08/21 05:49:14;;;;;;;1.38;0.65;;;23.40;70.00;;;;;;5073043;28;20091;-64
2023/08/21 05:51:40;;;;;;;1.73;0.65;;;23.30;70.00;;;;;;5073250;28;20068;-63
2023/08/21 05:54:06;;;;;;;1.35;0.60;;;23.40;70.00;;;;;;5074065;28;20392;-63
2023/08/21 05:56:31;;;;;;;1.83;0.70;;;23.40;70.00;;;;;;5074397;28;20036;-63
2023/08/21 05:58:57;;;;;;;1.67;0.45;;;23.40;70.00;;;;;;5073353;28;20207;-63
2023/08/21 06:01:22;;;;;;;1.15;0.60;;;23.40;70.00;;;;;;5074041;28;20036;-64
2023/08/21 06:03:48;;;;;;;1.30;0.60;;;23.30;70.00;;;;;;5073778;28;20136;-63
2023/08/21 06:06:13;;;;;;;1.63;0.50;;;23.30;70.00;;;;;;5073633;28;20041;-63
2023/08/21 06:08:39;;;;;;;2.15;0.70;;;23.40;70.00;;;;;;5072597;28;20048;-63
2023/08/21 06:11:05;;;;;;;1.27;0.50;;;23.30;70.00;;;;;;5072847;28;20052;-63
2023/08/21 06:13:30;;;;;;;1.17;0.68;;;23.40;70.10;;;;;;5073230;28;20388;-63
2023/08/21 06:15:56;;;;;;;2.08;0.60;;;23.30;70.00;;;;;;5073617;28;20102;-63
2023/08/21 06:18:21;;;;;;;2.17;0.70;;;23.30;70.00;;;;;;5072424;28;20044;-64
2023/08/21 06:20:48;;;;;;;1.95;0.60;;;23.30;70.10;;;;;;5071688;28;20094;-63
2023/08/21 06:23:14;;;;;;;2.17;0.50;;;23.30;70.00;;;;;;5071476;28;20048;-64
2023/08/21 06:25:39;;;;;;;0.90;0.52;;;23.30;70.10;;;;;;5072909;28;20052;-63
2023/08/21 06:28:05;;;;;;;1.70;0.60;;;23.30;70.10;;;;;;5073825;28;20048;-63
2023/08/21 06:30:31;;;;;;;1.23;0.50;;;23.30;70.10;;;;;;5073731;28;20040;-63
2023/08/21 06:32:56;;;;;;;1.63;0.73;;;23.30;70.10;;;;;;5072737;28;20072;-63
2023/08/21 06:35:22;;;;;;;1.98;0.60;;;23.30;70.10;;;;;;5071986;28;20083;-63
2023/08/21 06:37:48;;;;;;;1.35;0.50;;;23.30;70.10;;;;;;5072948;28;20037;-63
2023/08/21 06:40:13;;;;;;;1.77;0.60;;;23.30;70.10;;;;;;5072765;28;20385;-63
2023/08/21 06:42:39;;;;;;;1.67;0.77;;;23.30;70.20;;;;;;5055062;28;20472;-65
2023/08/21 06:45:05;;;;;;;1.65;0.50;;;23.40;70.20;;;;;;5073364;28;20101;-63
2023/08/21 06:47:31;;;;;;;1.60;0.63;;;23.30;70.20;;;;;;5072634;28;20064;-63
2023/08/21 06:49:57;;;;;;;1.05;0.50;;;23.30;70.20;;;;;;5072888;28;20044;-63
2023/08/21 06:52:22;;;;;;;2.05;0.85;;;23.40;70.30;;;;;;5073247;28;20165;-64
2023/08/21 06:54:48;;;;;;;1.92;0.50;;;23.30;70.30;;;;;;5070656;28;20482;-63
2023/08/21 06:57:13;;;;;;;1.95;0.50;;;23.30;70.30;;;;;;5073292;28;20114;-62
2023/08/21 06:59:39;;;;;;;1.42;0.52;;;23.30;70.30;;;;;;5072954;28;20036;-62
2023/08/21 07:02:05;;;;;;;1.63;0.60;;;23.40;70.40;;;;;;5072047;28;20381;-62
2023/08/21 07:04:32;;;;;;;1.65;0.50;;;23.40;70.40;;;;;;5105896;28;20071;-62
2023/08/21 07:06:58;;;;;;;1.30;0.57;;;23.40;70.30;;;;;;5072789;28;20090;-62
2023/08/21 07:09:24;;;;;;;1.65;0.60;;;23.40;70.30;;;;;;5070774;28;20040;-62
2023/08/21 07:11:49;;;;;;;1.50;0.60;;;23.40;70.20;;;;;;5072562;28;20071;-63
2023/08/21 07:14:16;;;;;;;1.70;0.52;;;23.40;70.30;;;;;;5072795;28;20052;-62
2023/08/21 07:16:42;;;;;;;0.80;0.50;;;23.40;70.20;;;;;;5071939;28;20048;-62
2023/08/21 07:19:08;;;;;;;0.98;0.50;;;23.40;70.20;;;;;;5073099;28;20138;-63
2023/08/21 07:21:35;;;;;;;1.83;0.77;;;23.40;70.20;;;;;;5072340;28;20036;-60
2023/08/21 07:24:02;;;;;;;2.40;0.50;;;23.50;70.20;;;;;;5072264;28;20056;-60
2023/08/21 07:26:28;;;;;;;0.98;0.50;;;23.50;70.20;;;;;;5072802;28;20040;-60
2023/08/21 07:28:54;;;;;;;1.33;0.60;;;23.50;70.20;;;;;;5071587;28;20109;-61
2023/08/21 07:31:19;;;;;;;1.67;0.50;;;23.50;70.20;;;;;;5071387;28;20491;-61
2023/08/21 07:33:45;;;;;;;1.42;0.70;;;23.50;70.10;;;;;;5072275;28;20461;-61
2023/08/21 07:36:16;;;;;;;1.35;0.45;;;23.50;70.10;;;;;;5071508;28;20182;-61
2023/08/21 07:38:45;;;;;;;2.13;0.70;;;23.50;70.10;;;;;;5072135;28;20505;-61
2023/08/21 07:41:12;;;;;;;1.80;0.57;;;23.50;70.10;;;;;;5071501;28;20366;-61
2023/08/21 07:43:39;;;;;;;1.45;0.50;;;23.50;70.10;;;;;;5070184;28;20036;-61
2023/08/21 07:46:06;;;;;;;1.13;0.50;;;23.60;70.20;;;;;;5072179;28;20641;-61
2023/08/21 07:48:31;;;;;;;1.33;0.65;;;23.60;70.10;;;;;;5072370;28;20048;-61
2023/08/21 07:50:57;;;;;;;1.77;0.73;;;23.60;70.20;;;;;;5071241;28;20097;-61
2023/08/21 07:53:26;;;;;;;1.95;0.50;;;23.60;70.10;;;;;;5070984;28;20049;-61
2023/08/21 07:55:52;;;;;;;0.93;0.40;;;23.60;70.10;;;;;;5072224;28;20041;-61
2023/08/21 07:58:18;;;;;;;1.10;0.50;;;23.70;70.20;;;;;;5071915;28;20362;-61
2023/08/21 08:00:44;;;;;;;0.85;0.43;;;23.70;70.10;;;;;;5071965;28;20098;-61
2023/08/21 08:03:10;;;;;;;1.50;0.50;;;23.70;70.10;;;;;;5072607;28;20048;-61
2023/08/21 08:05:36;;;;;;;2.03;0.65;;;23.70;70.10;;;;;;5071334;28;20037;-61
2023/08/21 08:08:02;;;;;;;1.48;0.60;;;23.70;70.00;;;;;;5072460;28;20377;-61
2023/08/21 08:10:27;;;;;;;1.15;0.40;;;23.80;70.00;;;;;;5072248;28;20123;-61
2023/08/21 08:12:54;;;;;;;1.10;0.52;;;23.80;70.00;;;;;;5071001;28;20229;-62
2023/08/21 08:15:20;;;;;;;0.70;0.50;;;23.80;70.00;;;;;;5072227;28;20123;-61
2023/08/21 08:17:45;;;;;;;1.38;0.63;;;23.80;70.00;;;;;;5071944;28;20072;-61
2023/08/21 08:20:12;;;;;;;2.10;0.68;;;23.80;69.90;;;;;;5071485;28;20523;-61
2023/08/21 08:22:37;;;;;;;1.33;0.40;;;23.90;70.00;;;;;;5072036;28;20098;-61
2023/08/21 08:25:05;;;;;;;1.05;0.50;;;23.90;69.90;;;;;;5071441;28;20045;-61
2023/08/21 08:27:32;;;;;;;1.25;0.47;;;23.90;69.90;;;;;;5072152;28;20106;-61
2023/08/21 08:29:57;;;;;;;1.45;0.40;;;23.90;70.50;;;;;;5070780;28;20060;-61
2023/08/21 08:32:23;;;;;;;1.05;0.50;;;23.90;69.80;;;;;;5071093;28;20423;-61
2023/08/21 08:34:49;;;;;;;1.83;0.57;;;24.00;69.80;;;;;;5071267;28;20052;-62
2023/08/21 08:37:14;;;;;;;1.67;0.50;;;24.00;69.70;;;;;;5071997;28;20397;-61
2023/08/21 08:39:40;;;;;;;2.08;0.80;;;24.00;69.80;;;;;;5069630;28;20037;-61
2023/08/21 08:42:06;;;;;;;0.90;0.50;;;24.00;69.70;;;;;;5071905;28;20047;-61
2023/08/21 08:44:32;;;;;;;3.30;0.70;;;24.00;69.80;;;;;;5071827;28;20051;-61
2023/08/21 08:46:57;;;;;;;1.55;0.50;;;24.10;69.80;;;;;;5055972;28;20075;-61
2023/08/21 08:49:23;;;;;;;1.55;0.60;;;24.10;69.80;;;;;;5074279;28;20064;-61
2023/08/21 08:51:49;;;;;;;1.00;0.40;;;24.10;69.70;;;;;;5073954;28;20044;-61
2023/08/21 08:54:16;;;;;;;1.52;0.70;;;24.10;69.70;;;;;;5073425;28;20045;-61
2023/08/21 08:56:41;;;;;;;1.83;0.73;;;24.10;69.70;;;;;;5075209;28;20040;-61
2023/08/21 08:59:07;;;;;;;2.25;0.50;;;24.10;69.60;;;;;;5075206;28;20047;-61
2023/08/21 09:01:33;;;;;;;1.63;0.60;;;24.20;69.60;;;;;;5074459;28;20036;-61
2023/08/21 09:03:58;;;;;;;0.93;0.40;;;24.20;69.60;;;;;;5075125;28;20123;-61
2023/08/21 09:06:24;;;;;;;0.70;0.40;;;24.20;69.60;;;;;;5075135;28;20083;-62
2023/08/21 09:08:54;;;;;;;2.13;0.52;;;24.20;69.60;;;;;;5072664;28;20042;-61
2023/08/21 09:11:20;;;;;;;0.70;0.50;;;24.20;69.60;;;;;;5074000;28;20048;-61
2023/08/21 09:13:45;;;;;;;1.52;0.60;;;24.20;69.50;;;;;;5074662;28;20044;-61
2023/08/21 09:16:11;;;;;;;0.50;0.40;;;24.20;69.50;;;;;;5072789;28;20049;-61
2023/08/21 09:18:37;;;;;;;2.45;0.57;;;24.20;69.40;;;;;;5073316;28;20499;-62
2023/08/21 09:21:03;;;;;;;1.35;0.50;;;24.30;69.50;;;;;;5075087;28;20037;-62
2023/08/21 09:23:29;;;;;;;2.47;0.60;;;24.30;69.40;;;;;;5074074;28;20044;-61
2023/08/21 09:25:55;;;;;;;1.13;0.40;;;24.30;69.40;;;;;;5074780;28;20048;-62
2023/08/21 09:28:20;;;;;;;1.25;0.38;;;24.30;69.40;;;;;;5072318;28;20044;-61
2023/08/21 09:30:53;;;;;;;1.17;0.40;;;24.30;69.40;;;;;;5074148;28;20502;-61
2023/08/21 09:33:19;;;;;;;2.05;0.60;;;24.30;69.40;;;;;;5073245;28;20500;-61
2023/08/21 09:35:45;;;;;;;1.33;0.50;;;24.30;69.40;;;;;;5073295;28;20068;-61
2023/08/21 09:38:11;;;;;;;0.77;0.40;;;24.30;69.40;;;;;;5074641;28;20044;-61
2023/08/21 09:40:41;;;;;;;1.83;0.50;;;24.30;69.40;;;;;;5074366;28;20083;-61
2023/08/21 09:43:07;;;;;;;0.57;0.40;;;24.20;69.40;;;;;;5073839;28;20119;-61
2023/08/21 09:45:33;;;;;;;1.40;0.55;;;24.30;69.40;;;;;;5073218;28;20037;-61
2023/08/21 09:47:59;;;;;;;1.90;0.60;;;24.30;69.40;;;;;;5074657;28;20484;-61
2023/08/21 09:50:24;;;;;;;1.75;0.50;;;24.30;69.40;;;;;;5072351;28;20048;-61
2023/08/21 09:52:50;;;;;;;0.90;0.50;;;24.30;69.40;;;;;;5072569;28;20526;-62
2023/08/21 09:55:16;;;;;;;1.08;0.60;;;24.30;69.40;;;;;;5073223;28;20055;-62
2023/08/21 09:57:42;;;;;;;1.38;0.55;;;24.30;69.40;;;;;;5071994;28;20068;-61
2023/08/21 10:00:15;;;;;;;2.00;0.57;;;24.40;69.40;;;;;;5072838;28;20102;-62
2023/08/21 10:02:43;;;;;;;0.30;0.30;;;24.30;69.30;;;;;;5073853;28;20044;-61
2023/08/21 10:05:09;;;;;;;1.23;0.50;;;24.40;69.40;;;;;;5072350;28;20111;-61
2023/08/21 10:07:34;;;;;;;0.75;0.40;;;24.40;69.40;;;;;;5072458;28;20479;-61
2023/08/21 10:10:00;;;;;;;1.45;0.50;;;24.40;69.40;;;;;;5072659;28;20059;-62
2023/08/21 10:12:26;;;;;;;2.30;0.50;;;24.40;69.40;;;;;;5071972;28;20106;-61
2023/08/21 10:14:51;;;;;;;1.75;0.60;;;24.40;69.40;;;;;;5072572;28;20036;-61
2023/08/21 10:17:17;;;;;;;1.10;0.40;;;24.40;69.40;;;;;;5055952;28;20086;-61
2023/08/21 10:19:53;;;;;;;1.60;0.50;;;24.40;69.40;;;;;;5071597;28;20052;-61
2023/08/21 10:22:43;;;;;;;1.80;0.32;;;24.40;69.40;;;;;;5072230;28;20052;-61
2023/08/21 10:25:16;;;;;;;1.38;0.40;;;24.50;69.40;;;;;;5071442;28;20041;-61
2023/08/21 10:27:42;;;;;;;0.88;0.40;;;24.50;69.40;;;;;;5073523;28;20056;-61
2023/08/21 10:30:24;;;;;;;1.85;0.70;;;24.50;69.30;;;;;;5072741;28;20171;-61
2023/08/21 10:32:52;;;;;;;1.33;0.38;;;24.50;69.30;;;;;;5072397;28;20045;-61
2023/08/21 10:35:22;;;;;;;1.70;0.50;;;24.50;69.30;;;;;;5071699;28;20072;-61
2023/08/21 10:38:16;;;;;;;1.58;0.40;;;24.50;69.30;;;;;;5072948;28;20303;-61
2023/08/21 10:41:04;;;;;;;1.45;0.55;;;24.50;69.30;;;;;;5071121;28;20075;-61
2023/08/21 10:43:56;;;;;;;0.70;0.50;;;24.50;69.30;;;;;;5073124;28;20071;-61
2023/08/21 10:46:22;;;;;;;1.58;0.50;;;24.50;69.30;;;;;;5070976;28;20056;-61
2023/08/21 10:48:48;;;;;;;1.38;0.40;;;24.50;69.20;;;;;;5072493;28;20055;-61
2023/08/21 10:51:13;;;;;;;3.13;1.30;;;24.50;69.20;;;;;;5071437;28;20112;-61
2023/08/21 10:53:41;;;;;;;1.08;0.50;;;24.50;69.10;;;;;;5070383;28;20044;-61
2023/08/21 10:56:06;;;;;;;1.10;0.60;;;24.50;69.10;;;;;;5071343;28;20048;-62
2023/08/21 10:58:39;;;;;;;1.15;0.60;;;24.50;69.10;;;;;;5072843;28;20037;-61
2023/08/21 11:01:05;;;;;;;1.58;0.45;;;24.60;69.10;;;;;;5070683;28;20041;-61
2023/08/21 11:03:30;;;;;;;1.33;0.50;;;24.60;69.10;;;;;;5073011;28;20127;-61
2023/08/21 11:06:08;;;;;;;;;;;24.60;69.10;;;;;;5072248;28;20053;-61
2023/08/21 11:08:34;;;;;;;2.10;0.80;;;24.60;69.10;;;;;;5071489;28;19935;-62
2023/08/21 11:11:04;;;;;;;1.70;0.40;;;24.50;69.00;;;;;;5072951;28;20044;-61
2023/08/21 11:13:29;;;;;;;1.65;0.50;;;24.60;69.00;;;;;;5072554;28;20391;-61
2023/08/21 11:16:02;;;;;;;0.80;0.50;;;24.60;69.00;;;;;;5071756;28;20112;-62
2023/08/21 11:18:31;;;;;;;0.98;0.55;;;24.60;69.00;;;;;;5071530;28;20056;-61
2023/08/21 11:21:04;;;;;;;0.90;0.40;;;24.60;68.90;;;;;;5071672;28;20123;-62
2023/08/21 11:23:34;;;;;;;0.80;0.50;;;24.60;68.90;;;;;;5072856;28;20076;-61
2023/08/21 11:26:00;;;;;;;1.75;0.50;;;24.60;68.90;;;;;;5071443;28;20048;-61
2023/08/21 11:28:27;;;;;;;0.80;0.40;;;24.60;68.90;;;;;;5072007;28;20110;-61
2023/08/21 11:30:52;;;;;;;1.52;0.50;;;24.60;68.90;;;;;;5071289;28;20047;-61
2023/08/21 11:33:18;;;;;;;0.68;0.30;;;24.60;68.80;;;;;;5071589;28;20044;-61
2023/08/21 11:35:44;;;;;;;1.83;0.60;;;24.70;68.90;;;;;;5069960;28;20048;-61
2023/08/21 11:38:17;;;;;;;1.45;0.50;;;24.70;68.90;;;;;;5071273;28;20412;-61
2023/08/21 11:40:50;;;;;;;1.13;0.50;;;24.70;68.90;;;;;;5072545;28;20044;-61
2023/08/21 11:43:16;;;;;;;2.20;0.63;;;24.70;68.90;;;;;;5070565;28;20049;-61
2023/08/21 11:45:41;;;;;;;1.10;0.32;;;24.70;68.80;;;;;;5072174;28;20067;-61
2023/08/21 11:48:07;;;;;;;1.40;0.38;;;24.70;68.80;;;;;;5072597;28;20094;-61
2023/08/21 11:50:32;;;;;;;1.42;0.68;;;24.70;68.80;;;;;;5071866;28;20441;-61
2023/08/21 11:52:58;;;;;;;0.98;0.40;;;24.70;68.80;;;;;;5071026;28;20040;-61
2023/08/21 11:55:24;;;;;;;1.25;0.50;;;24.70;68.80;;;;;;5071331;28;20054;-62
2023/08/21 11:57:50;;;;;;;1.80;0.50;;;24.70;68.80;;;;;;5071498;28;20476;-61
2023/08/21 12:00:22;;;;;;;1.30;0.50;;;24.70;68.80;;;;;;5072647;28;20080;-61
2023/08/21 12:02:58;;;;;;;0.95;0.63;;;24.70;68.80;;;;;;5070877;28;20036;-61
2023/08/21 12:05:23;;;;;;;1.30;0.50;;;24.70;68.80;;;;;;5071864;28;20110;-61
2023/08/21 12:07:49;;;;;;;1.13;0.40;;;24.70;68.80;;;;;;5070562;28;20449;-61
2023/08/21 12:10:21;;;;;;;0.93;0.40;;;24.70;68.80;;;;;;5071599;28;20151;-61
2023/08/21 12:12:47;;;;;;;0.68;0.30;;;24.70;68.80;;;;;;5055016;28;20059;-61
2023/08/21 12:15:12;;;;;;;0.88;0.40;;;24.80;68.80;;;;;;5070860;28;20040;-61
2023/08/21 12:17:38;;;;;;;0.93;0.30;;;24.80;68.80;;;;;;5071310;28;20051;-61
2023/08/21 12:20:10;;;;;;;0.95;0.40;;;24.80;68.80;;;;;;5072759;28;20052;-61
2023/08/21 12:22:37;;;;;;;1.27;0.40;;;24.80;68.80;;;;;;5074410;28;20044;-61
2023/08/21 12:25:03;;;;;;;1.85;0.50;;;24.80;68.80;;;;;;5075575;28;20048;-61
2023/08/21 12:27:29;;;;;;;1.13;0.40;;;24.80;68.80;;;;;;5076120;28;20051;-61
2023/08/21 12:29:55;;;;;;;1.15;0.40;;;24.80;68.70;;;;;;5075465;28;20032;-61
2023/08/21 12:32:20;;;;;;;0.82;0.50;;;24.80;68.70;;;;;;5073776;28;20411;-61
2023/08/21 12:34:46;;;;;;;1.17;0.50;;;24.80;68.70;;;;;;5075340;28;20144;-61
2023/08/21 12:37:11;;;;;;;0.93;0.47;;;24.80;68.70;;;;;;5076061;28;20392;-62
2023/08/21 12:39:37;;;;;;;0.77;0.30;;;24.80;68.70;;;;;;5073403;28;20043;-61
2023/08/21 12:42:04;;;;;;;1.33;0.50;;;24.80;68.70;;;;;;5075908;28;20112;-62
2023/08/21 12:44:30;;;;;;;1.80;0.50;;;24.90;68.70;;;;;;5075362;28;20040;-61